createdAt,value
2019-04-07T00:00:13.426Z,99.90
2019-04-07T00:02:42.478Z,99.90
2019-04-07T00:05:14.426Z,99.90
2019-04-07T00:07:42.441Z,99.90
2019-04-07T00:10:12.056Z,99.90
2019-04-07T00:12:41.557Z,99.90
2019-04-07T00:15:10.572Z,99.90
2019-04-07T00:17:39.581Z,99.90
2019-04-07T00:20:08.882Z,99.90
2019-04-07T00:22:38.021Z,99.90
2019-04-07T00:25:07.172Z,99.90
2019-04-07T00:27:36.860Z,99.90
2019-04-07T00:30:06.569Z,99.90
2019-04-07T00:32:35.595Z,99.90
2019-04-07T00:35:05.485Z,99.90
2019-04-07T00:37:34.668Z,99.90
2019-04-07T00:40:04.218Z,99.90
2019-04-07T00:42:33.742Z,99.90
2019-04-07T00:45:03.599Z,99.90
2019-04-07T00:47:32.525Z,99.90
2019-04-07T00:50:01.546Z,99.90
2019-04-07T00:52:30.726Z,99.90
2019-04-07T00:54:59.984Z,99.90
2019-04-07T00:57:29.618Z,99.90
2019-04-07T00:59:59.464Z,99.90
2019-04-07T01:02:28.587Z,99.90
2019-04-07T01:04:57.591Z,99.90
2019-04-07T01:07:26.652Z,99.90
2019-04-07T01:09:56.046Z,99.90
2019-04-07T01:12:24.984Z,99.90
2019-04-07T01:14:54.440Z,99.90
2019-04-07T01:17:23.699Z,99.90
2019-04-07T01:19:52.938Z,99.90
2019-04-07T01:22:22.525Z,99.90
2019-04-07T01:24:51.785Z,99.90
2019-04-07T01:27:21.474Z,99.90
2019-04-07T01:29:50.782Z,99.90
2019-04-07T01:32:20.295Z,99.90
2019-04-07T01:34:49.400Z,99.90
2019-04-07T01:37:18.705Z,99.90
2019-04-07T01:39:47.803Z,99.90
2019-04-07T01:42:38.981Z,99.90
2019-04-07T01:45:25.976Z,99.90
2019-04-07T01:48:02.373Z,99.90
2019-04-07T01:50:58.167Z,99.90
2019-04-07T01:53:49.965Z,99.90
2019-04-07T01:56:37.201Z,99.90
2019-04-07T01:59:12.960Z,99.90
2019-04-07T02:02:01.329Z,99.90
2019-04-07T02:04:40.003Z,99.90
2019-04-07T02:07:27.274Z,99.90
2019-04-07T02:10:14.988Z,99.90
2019-04-07T02:12:59.341Z,99.90
2019-04-07T02:15:53.761Z,99.90
2019-04-07T02:18:39.989Z,99.90
2019-04-07T02:21:31.841Z,99.90
2019-04-07T02:24:23.473Z,99.90
2019-04-07T02:27:01.841Z,99.90
2019-04-07T02:29:48.835Z,99.90
2019-04-07T02:32:35.862Z,99.90
2019-04-07T02:35:25.803Z,99.90
2019-04-07T02:38:15.083Z,99.90
2019-04-07T02:40:51.763Z,99.90
2019-04-07T02:43:41.155Z,99.90
2019-04-07T02:46:36.566Z,99.90
2019-04-07T02:49:32.250Z,99.90
2019-04-07T02:52:26.831Z,99.90
2019-04-07T02:55:11.629Z,99.90
2019-04-07T02:58:10.267Z,99.90
2019-04-07T03:00:52.705Z,99.90
2019-04-07T03:03:27.205Z,99.90
2019-04-07T03:06:37.699Z,99.90
2019-04-07T03:09:10.902Z,99.90
2019-04-07T03:12:08.140Z,99.90
2019-04-07T03:14:55.713Z,99.90
2019-04-07T03:17:32.574Z,99.90
2019-04-07T03:20:13.627Z,99.90
2019-04-07T03:23:00.465Z,99.90
2019-04-07T03:25:48.648Z,99.90
2019-04-07T03:28:33.081Z,99.90
2019-04-07T03:31:12.794Z,99.90
2019-04-07T03:34:05.967Z,99.90
2019-04-07T03:37:12.691Z,99.90
2019-04-07T03:39:24.516Z,99.90
2019-04-07T03:42:01.582Z,99.90
2019-04-07T03:44:41.012Z,99.90
2019-04-07T03:47:44.586Z,99.90
2019-04-07T03:50:25.626Z,99.90
2019-04-07T03:53:13.627Z,99.90
2019-04-07T03:55:51.562Z,99.90
2019-04-07T03:58:52.398Z,99.90
2019-04-07T04:01:41.476Z,99.90
2019-04-07T04:04:20.999Z,99.90
2019-04-07T04:07:25.809Z,99.90
2019-04-07T04:10:17.519Z,99.90
2019-04-07T04:13:05.554Z,99.90
2019-04-07T04:15:51.577Z,99.90
2019-04-07T04:18:20.751Z,99.90
2019-04-07T04:20:49.811Z,99.90
2019-04-07T04:23:19.754Z,99.90
2019-04-07T04:25:52.599Z,99.90
2019-04-07T04:28:21.903Z,99.90
2019-04-07T04:30:51.129Z,99.90
2019-04-07T04:33:20.266Z,99.90
2019-04-07T04:35:49.264Z,99.90
2019-04-07T04:38:18.186Z,99.90
2019-04-07T04:40:47.213Z,99.90
2019-04-07T04:43:16.230Z,99.90
2019-04-07T04:45:46.041Z,99.90
2019-04-07T04:48:15.525Z,99.90
2019-04-07T04:50:44.640Z,99.90
2019-04-07T04:53:13.580Z,99.90
2019-04-07T04:55:42.485Z,99.90
2019-04-07T04:58:11.588Z,99.90
2019-04-07T05:00:41.469Z,99.90
2019-04-07T05:03:10.973Z,99.90
2019-04-07T05:05:40.022Z,99.90
2019-04-07T05:08:09.420Z,99.90
2019-04-07T05:10:38.473Z,99.90
2019-04-07T05:13:07.651Z,99.90
2019-04-07T05:15:36.678Z,99.90
2019-04-07T05:18:06.421Z,99.90
2019-04-07T05:20:35.508Z,99.90
2019-04-07T05:23:05.188Z,99.90
2019-04-07T05:25:34.913Z,99.90
2019-04-07T05:28:04.634Z,99.90
2019-04-07T05:30:33.766Z,99.90
2019-04-07T05:33:03.483Z,99.90
2019-04-07T05:35:32.969Z,99.90
2019-04-07T05:38:04.955Z,99.90
2019-04-07T05:40:32.825Z,99.90
2019-04-07T05:43:02.063Z,99.90
2019-04-07T05:45:31.542Z,99.90
2019-04-07T05:48:00.621Z,99.90
2019-04-07T05:50:29.690Z,99.90
2019-04-07T05:52:58.808Z,99.90
2019-04-07T05:55:28.109Z,99.90
2019-04-07T05:57:57.565Z,99.90
2019-04-07T06:00:26.684Z,99.90
2019-04-07T06:02:56.041Z,99.90
2019-04-07T06:05:25.483Z,99.90
2019-04-07T06:07:54.550Z,99.90
2019-04-07T06:10:26.587Z,99.90
2019-04-07T06:12:54.161Z,99.90
2019-04-07T06:15:23.313Z,99.90
2019-04-07T06:17:52.412Z,99.90
2019-04-07T06:20:22.496Z,99.90
2019-04-07T06:22:53.632Z,99.90
2019-04-07T06:25:22.342Z,99.90
2019-04-07T06:27:51.893Z,99.90
2019-04-07T06:30:22.100Z,99.90
2019-04-07T06:32:51.571Z,99.90
2019-04-07T06:35:20.887Z,99.90
2019-04-07T06:37:50.780Z,99.90
2019-04-07T06:40:21.313Z,99.90
2019-04-07T06:42:51.264Z,99.90
2019-04-07T06:45:24.420Z,99.90
2019-04-07T06:47:56.297Z,99.90
2019-04-07T06:50:49.492Z,99.90
2019-04-07T06:53:21.204Z,99.90
2019-04-07T06:56:08.942Z,99.90
2019-04-07T06:58:50.468Z,99.90
2019-04-07T07:01:30.772Z,99.90
2019-04-07T07:04:34.478Z,99.90
2019-04-07T07:07:13.034Z,99.90
2019-04-07T07:10:00.970Z,99.90
2019-04-07T07:12:52.228Z,99.90
2019-04-07T07:15:49.559Z,99.90
2019-04-07T07:18:42.544Z,99.90
2019-04-07T07:21:36.217Z,99.90
2019-04-07T07:24:04.972Z,99.90
2019-04-07T07:26:35.455Z,99.90
2019-04-07T07:29:06.708Z,99.90
2019-04-07T07:31:35.810Z,99.90
2019-04-07T07:34:05.047Z,99.90
2019-04-07T07:36:34.966Z,99.90
2019-04-07T07:39:10.249Z,99.90
2019-04-07T07:41:37.731Z,99.90
2019-04-07T07:44:08.624Z,99.90
2019-04-07T07:46:38.577Z,99.90
2019-04-07T07:49:07.636Z,99.90
2019-04-07T07:51:38.666Z,99.90
2019-04-07T07:54:07.730Z,99.90
2019-04-07T07:56:36.718Z,99.90
2019-04-07T07:59:06.240Z,99.90
2019-04-07T08:01:35.318Z,99.90
2019-04-07T08:04:05.142Z,99.90
2019-04-07T08:06:34.662Z,99.90
2019-04-07T08:09:12.855Z,99.90
2019-04-07T08:11:37.962Z,99.90
2019-04-07T08:14:07.606Z,99.90
2019-04-07T08:16:37.390Z,99.90
2019-04-07T08:19:09.388Z,99.90
2019-04-07T08:21:38.036Z,99.90
2019-04-07T08:24:07.984Z,99.90
2019-04-07T08:26:37.234Z,99.90
2019-04-07T08:29:07.759Z,99.90
2019-04-07T08:31:37.303Z,99.90
2019-04-07T08:34:06.297Z,99.90
2019-04-07T08:36:35.296Z,99.90
2019-04-07T08:39:18.525Z,99.90
2019-04-07T08:41:39.686Z,99.90
2019-04-07T08:44:08.250Z,99.90
2019-04-07T08:46:40.960Z,99.90
2019-04-07T08:49:08.672Z,99.90
2019-04-07T08:51:37.658Z,99.80
2019-04-07T08:54:07.314Z,98.70
2019-04-07T08:56:36.663Z,98.20
2019-04-07T08:59:08.482Z,95.50
2019-04-07T09:01:38.728Z,96.50
2019-04-07T09:04:07.759Z,96.30
2019-04-07T09:06:37.431Z,94.40
2019-04-07T09:09:08.048Z,94.60
2019-04-07T09:11:40.006Z,94.00
2019-04-07T09:14:08.708Z,93.70
2019-04-07T09:16:58.123Z,92.00
2019-04-07T09:19:40.439Z,91.70
2019-04-07T09:22:26.575Z,89.00
2019-04-07T09:25:19.346Z,86.30
2019-04-07T09:28:17.908Z,87.30
2019-04-07T09:31:03.137Z,84.60
2019-04-07T09:34:05.557Z,82.20
2019-04-07T09:36:50.366Z,78.20
2019-04-07T09:39:26.938Z,79.70
2019-04-07T09:42:04.734Z,77.00
2019-04-07T09:44:53.775Z,74.20
2019-04-07T09:47:41.378Z,79.40
2019-04-07T09:50:29.616Z,76.50
2019-04-07T09:53:30.515Z,74.20
2019-04-07T09:56:20.323Z,73.90
2019-04-07T09:59:19.273Z,73.90
2019-04-07T10:02:14.552Z,78.00
2019-04-07T10:05:00.151Z,73.70
2019-04-07T10:07:48.845Z,75.50
2019-04-07T10:10:35.015Z,77.50
2019-04-07T10:13:17.864Z,73.60
2019-04-07T10:16:12.015Z,72.80
2019-04-07T10:18:55.087Z,76.50
2019-04-07T10:21:44.038Z,75.40
2019-04-07T10:24:32.577Z,75.80
2019-04-07T10:27:24.318Z,76.50
2019-04-07T10:30:11.423Z,73.10
2019-04-07T10:32:53.237Z,72.20
2019-04-07T10:35:39.949Z,73.40
2019-04-07T10:38:23.600Z,70.10
2019-04-07T10:41:12.922Z,70.10
2019-04-07T10:44:05.181Z,70.50
2019-04-07T10:47:02.306Z,66.80
2019-04-07T10:49:44.287Z,62.90
2019-04-07T10:52:26.072Z,66.50
2019-04-07T10:55:20.731Z,65.00
2019-04-07T10:58:15.267Z,65.90
2019-04-07T11:01:02.906Z,64.90
2019-04-07T11:03:46.844Z,63.40
2019-04-07T11:06:22.748Z,64.70
2019-04-07T11:09:11.131Z,63.10
2019-04-07T11:11:48.915Z,64.80
2019-04-07T11:14:36.585Z,64.00
2019-04-07T11:17:14.789Z,64.40
2019-04-07T11:19:50.390Z,67.10
2019-04-07T11:22:37.129Z,67.50
2019-04-07T11:25:27.254Z,68.10
2019-04-07T11:28:19.661Z,68.60
2019-04-07T11:31:06.398Z,66.80
2019-04-07T11:33:54.556Z,65.80
2019-04-07T11:36:28.874Z,67.80
2019-04-07T11:39:08.977Z,67.20
2019-04-07T11:41:57.275Z,69.70
2019-04-07T11:44:43.375Z,69.50
2019-04-07T11:47:24.141Z,69.60
2019-04-07T11:50:21.250Z,71.30
2019-04-07T11:53:09.373Z,69.20
2019-04-07T11:55:48.593Z,71.20
2019-04-07T11:58:36.057Z,70.40
2019-04-07T12:01:24.280Z,71.50
2019-04-07T12:04:06.821Z,70.40
2019-04-07T12:06:49.352Z,68.50
2019-04-07T12:09:23.920Z,70.20
2019-04-07T12:12:06.920Z,70.10
2019-04-07T12:14:57.821Z,70.40
2019-04-07T12:17:52.422Z,71.30
2019-04-07T12:20:36.276Z,71.20
2019-04-07T12:23:30.697Z,70.90
2019-04-07T12:26:18.915Z,72.00
2019-04-07T12:29:06.903Z,70.80
2019-04-07T12:31:59.721Z,72.10
2019-04-07T12:34:49.594Z,71.20
2019-04-07T12:37:40.921Z,72.70
2019-04-07T12:40:34.290Z,70.00
2019-04-07T12:43:23.030Z,71.40
2019-04-07T12:46:02.455Z,71.70
2019-04-07T12:48:49.968Z,69.10
2019-04-07T12:51:30.803Z,71.60
2019-04-07T12:54:12.766Z,71.50
2019-04-07T12:57:06.174Z,72.40
2019-04-07T12:59:54.889Z,70.70
2019-04-07T13:02:54.398Z,71.50
2019-04-07T13:05:45.176Z,71.90
2019-04-07T13:08:39.300Z,71.50
2019-04-07T13:11:26.520Z,72.40
2019-04-07T13:14:14.045Z,73.70
2019-04-07T13:17:01.705Z,73.70
2019-04-07T13:19:50.531Z,74.20
2019-04-07T13:22:42.155Z,71.90
2019-04-07T13:25:53.273Z,72.60
2019-04-07T13:28:41.876Z,73.20
2019-04-07T13:31:25.729Z,73.50
2019-04-07T13:34:09.411Z,73.30
2019-04-07T13:37:04.496Z,73.90
2019-04-07T13:39:53.391Z,74.40
2019-04-07T13:42:38.902Z,73.90
2019-04-07T13:45:31.220Z,74.70
2019-04-07T13:48:06.475Z,75.60
2019-04-07T13:50:47.507Z,75.30
2019-04-07T13:53:48.225Z,74.50
2019-04-07T13:56:28.633Z,74.50
2019-04-07T13:59:11.185Z,75.40
2019-04-07T14:01:52.461Z,74.60
2019-04-07T14:04:39.207Z,74.10
2019-04-07T14:07:26.359Z,76.30
2019-04-07T14:10:26.473Z,76.00
2019-04-07T14:13:14.815Z,75.90
2019-04-07T14:16:01.940Z,76.10
2019-04-07T14:18:46.827Z,75.60
2019-04-07T14:21:30.721Z,77.60
2019-04-07T14:24:18.768Z,77.60
2019-04-07T14:26:56.731Z,77.20
2019-04-07T14:30:07.840Z,76.70
2019-04-07T14:33:02.398Z,76.90
2019-04-07T14:35:54.301Z,77.00
2019-04-07T14:38:35.558Z,77.70
2019-04-07T14:41:30.157Z,77.60
2019-04-07T14:44:24.733Z,78.20
2019-04-07T14:47:12.004Z,77.30
2019-04-07T14:50:03.765Z,77.00
2019-04-07T14:52:57.932Z,77.90
2019-04-07T14:55:38.098Z,78.50
2019-04-07T14:58:38.332Z,79.00
2019-04-07T15:01:16.500Z,79.50
2019-04-07T15:03:45.849Z,79.20
2019-04-07T15:06:16.534Z,79.00
2019-04-07T15:08:53.338Z,79.70
2019-04-07T15:11:51.017Z,79.30
2019-04-07T15:14:20.227Z,80.20
2019-04-07T15:16:50.222Z,81.00
2019-04-07T15:19:19.948Z,81.10
2019-04-07T15:21:53.115Z,79.80
2019-04-07T15:24:21.956Z,81.10
2019-04-07T15:26:54.057Z,80.90
2019-04-07T15:29:24.214Z,80.30
2019-04-07T15:31:54.375Z,80.70
2019-04-07T15:34:24.160Z,81.10
2019-04-07T15:36:53.235Z,81.10
2019-04-07T15:39:28.057Z,81.30
2019-04-07T15:41:56.623Z,81.40
2019-04-07T15:44:25.981Z,82.20
2019-04-07T15:46:56.577Z,81.60
2019-04-07T15:49:28.150Z,82.10
2019-04-07T15:51:57.263Z,82.10
2019-04-07T15:54:26.230Z,81.70
2019-04-07T15:56:57.903Z,82.50
2019-04-07T15:59:29.437Z,82.30
2019-04-07T16:01:57.333Z,83.10
2019-04-07T16:04:29.308Z,82.40
2019-04-07T16:06:57.257Z,82.80
2019-04-07T16:09:35.944Z,82.80
2019-04-07T16:11:58.932Z,83.00
2019-04-07T16:14:28.737Z,83.10
2019-04-07T16:17:02.068Z,83.20
2019-04-07T16:19:38.855Z,83.30
2019-04-07T16:22:00.107Z,84.00
2019-04-07T16:24:29.287Z,83.70
2019-04-07T16:26:58.943Z,83.90
2019-04-07T16:29:29.545Z,84.10
2019-04-07T16:31:58.788Z,83.90
2019-04-07T16:34:28.371Z,84.40
2019-04-07T16:37:00.184Z,84.20
2019-04-07T16:39:33.492Z,84.30
2019-04-07T16:42:01.087Z,84.40
2019-04-07T16:44:30.819Z,85.00
2019-04-07T16:47:03.879Z,84.20
2019-04-07T16:49:31.512Z,84.40
2019-04-07T16:52:02.296Z,84.80
2019-04-07T16:54:32.478Z,84.70
2019-04-07T16:57:02.035Z,84.60
2019-04-07T16:59:31.684Z,85.40
2019-04-07T17:02:00.718Z,85.60
2019-04-07T17:04:30.053Z,85.50
2019-04-07T17:07:04.109Z,85.70
2019-04-07T17:09:30.201Z,85.50
2019-04-07T17:12:00.270Z,85.50
2019-04-07T17:14:31.938Z,85.70
2019-04-07T17:17:00.324Z,86.00
2019-04-07T17:19:30.102Z,85.70
2019-04-07T17:22:00.469Z,85.70
2019-04-07T17:24:30.550Z,86.80
2019-04-07T17:27:01.021Z,86.70
2019-04-07T17:29:30.834Z,86.10
2019-04-07T17:32:01.769Z,86.50
2019-04-07T17:34:30.969Z,87.40
2019-04-07T17:37:00.825Z,88.20
2019-04-07T17:39:41.937Z,87.70
2019-04-07T17:42:12.919Z,86.80
2019-04-07T17:44:59.882Z,87.10
2019-04-07T17:47:36.658Z,88.60
2019-04-07T17:50:26.026Z,87.70
2019-04-07T17:53:10.033Z,88.00
2019-04-07T17:55:58.873Z,87.80
2019-04-07T17:58:45.732Z,88.80
2019-04-07T18:01:32.549Z,89.00
2019-04-07T18:04:30.627Z,87.90
2019-04-07T18:07:24.307Z,88.10
2019-04-07T18:10:12.308Z,88.40
2019-04-07T18:13:07.407Z,88.10
2019-04-07T18:15:58.340Z,88.10
2019-04-07T18:18:45.744Z,89.80
2019-04-07T18:21:37.598Z,90.20
2019-04-07T18:24:20.627Z,89.70
2019-04-07T18:27:02.216Z,90.20
2019-04-07T18:29:52.779Z,90.50
2019-04-07T18:32:43.120Z,90.00
2019-04-07T18:35:30.832Z,90.00
2019-04-07T18:38:17.327Z,90.20
2019-04-07T18:41:09.408Z,90.50
2019-04-07T18:44:02.491Z,91.30
2019-04-07T18:46:47.778Z,90.50
2019-04-07T18:49:46.523Z,91.70
2019-04-07T18:52:38.943Z,91.80
2019-04-07T18:55:26.490Z,92.60
2019-04-07T18:58:03.074Z,91.70
2019-04-07T19:00:52.621Z,91.90
2019-04-07T19:03:58.984Z,92.40
2019-04-07T19:06:41.157Z,93.40
2019-04-07T19:09:35.745Z,93.30
2019-04-07T19:12:23.150Z,93.40
2019-04-07T19:15:14.103Z,93.90
2019-04-07T19:18:03.502Z,93.60
2019-04-07T19:20:55.674Z,94.50
2019-04-07T19:24:02.589Z,94.00
2019-04-07T19:26:54.428Z,94.40
2019-04-07T19:29:42.704Z,95.40
2019-04-07T19:32:20.892Z,95.80
2019-04-07T19:35:18.624Z,95.30
2019-04-07T19:38:00.899Z,94.50
2019-04-07T19:40:47.121Z,95.10
2019-04-07T19:43:33.188Z,95.30
2019-04-07T19:46:16.179Z,95.30
2019-04-07T19:49:13.928Z,94.40
2019-04-07T19:51:49.599Z,95.60
2019-04-07T19:54:38.375Z,95.70
2019-04-07T19:57:29.937Z,95.10
2019-04-07T20:00:26.014Z,96.10
2019-04-07T20:03:07.668Z,95.80
2019-04-07T20:06:11.410Z,98.10
2019-04-07T20:09:07.626Z,97.80
2019-04-07T20:12:01.518Z,98.00
2019-04-07T20:14:55.567Z,98.50
2019-04-07T20:17:50.374Z,99.30
2019-04-07T20:20:48.526Z,98.50
2019-04-07T20:23:30.953Z,98.40
2019-04-07T20:26:28.410Z,98.40
2019-04-07T20:29:15.266Z,98.60
2019-04-07T20:31:54.905Z,99.00
2019-04-07T20:34:34.002Z,99.60
2019-04-07T20:37:34.349Z,99.90
2019-04-07T20:40:11.171Z,99.90
2019-04-07T20:42:48.426Z,99.80
2019-04-07T20:45:28.898Z,99.90
2019-04-07T20:48:26.847Z,99.80
2019-04-07T20:51:31.297Z,99.90
2019-04-07T20:54:18.350Z,99.90
2019-04-07T20:56:57.563Z,99.90
2019-04-07T20:59:53.046Z,99.90
2019-04-07T21:03:11.219Z,99.90
2019-04-07T21:05:46.702Z,99.90
2019-04-07T21:08:49.900Z,99.90
2019-04-07T21:11:29.981Z,99.90
2019-04-07T21:14:07.258Z,99.90
2019-04-07T21:16:59.426Z,99.90
2019-04-07T21:19:51.281Z,99.90
2019-04-07T21:22:33.477Z,99.90
2019-04-07T21:25:39.878Z,99.90
2019-04-07T21:28:13.462Z,99.90
2019-04-07T21:30:51.532Z,99.90
2019-04-07T21:33:40.829Z,99.90
2019-04-07T21:36:22.052Z,99.80
2019-04-07T21:39:30.458Z,99.90
2019-04-07T21:42:18.631Z,99.90
2019-04-07T21:45:15.381Z,99.90
2019-04-07T21:48:18.617Z,99.90
2019-04-07T21:50:58.173Z,99.90
2019-04-07T21:53:34.661Z,99.90
2019-04-07T21:56:18.169Z,99.90
2019-04-07T21:59:03.217Z,99.90
2019-04-07T22:01:50.929Z,99.90
2019-04-07T22:04:38.180Z,99.90
2019-04-07T22:07:13.274Z,99.90
2019-04-07T22:09:52.495Z,99.90
2019-04-07T22:12:25.698Z,99.70
2019-04-07T22:14:52.767Z,99.20
2019-04-07T22:17:21.940Z,99.70
2019-04-07T22:19:51.195Z,99.90
2019-04-07T22:22:20.306Z,99.90
2019-04-07T22:24:49.420Z,99.10
2019-04-07T22:27:24.111Z,99.20
2019-04-07T22:29:49.937Z,99.70
2019-04-07T22:32:22.072Z,99.10
2019-04-07T22:34:50.343Z,99.10
2019-04-07T22:37:21.142Z,99.70
2019-04-07T22:39:50.230Z,98.60
2019-04-07T22:42:19.311Z,98.50
2019-04-07T22:44:49.901Z,98.10
2019-04-07T22:47:19.706Z,98.80
2019-04-07T22:49:50.622Z,98.20
2019-04-07T22:52:20.535Z,99.90
2019-04-07T22:54:49.878Z,99.90
2019-04-07T22:57:19.698Z,99.80
2019-04-07T22:59:48.752Z,99.20
2019-04-07T23:02:17.947Z,99.80
2019-04-07T23:04:47.033Z,99.90
2019-04-07T23:07:15.981Z,99.90
2019-04-07T23:09:45.450Z,99.90
2019-04-07T23:12:14.760Z,99.90
2019-04-07T23:14:44.274Z,99.90
2019-04-07T23:17:13.311Z,99.90
2019-04-07T23:19:42.258Z,99.50
2019-04-07T23:22:11.770Z,99.90
2019-04-07T23:24:41.116Z,99.90
2019-04-07T23:27:10.434Z,99.90
2019-04-07T23:29:39.480Z,99.90
2019-04-07T23:32:09.290Z,99.90
2019-04-07T23:34:39.402Z,99.90
2019-04-07T23:37:08.539Z,99.90
2019-04-07T23:39:37.717Z,99.90
2019-04-07T23:42:06.988Z,99.90
2019-04-07T23:44:36.167Z,99.90
2019-04-07T23:47:05.268Z,99.90
2019-04-07T23:49:34.303Z,99.90
2019-04-07T23:52:03.297Z,99.90
2019-04-07T23:54:33.104Z,99.90
2019-04-07T23:57:02.398Z,99.90
2019-04-07T23:59:31.491Z,99.90
